KILE/ILE METAR and TAF weather

Enter ICAO airport designator
Station Type Date Time Source
KILE METAR 2021/09/16 21:56 UTC NOAA

KILE 162156Z AUTO 09007KT 10SM BKN065 32/18 A2985 RMK AO2 SLP095 T03170183


Station Type Date Time Source
KILE Decoded METAR 2021/09/16 21:56 UTC NOAA

Killeen, Skylark Field Airport, TX, United States (KILE) 31-05N 097-41W
Sep 16, 2021 - 05:56 PM EDT / 2021.09.16 2156 UTC
Wind: from the E (090 degrees) at 8 MPH (7 KT):0
Visibility: 10 mile(s):0
Sky conditions: mostly cloudy
Temperature: 89.1 F (31.7 C)
Dew Point: 64.9 F (18.3 C)
Relative Humidity: 44%
Pressure (altimeter): 29.85 in. Hg (1010 hPa)
ob: KILE 162156Z AUTO 09007KT 10SM BKN065 32/18 A2985 RMK AO2 SLP095 T03170183
cycle: 22

Station Type Date Time Source
KILE TAF UTC NOAA

Error!

Example: see airport list